Siletz, Oregon
Current Conditions -  °F | °C
As of 1:35 AM on Tuesday 21 Oct 2014 (Local Time) from KONP Reporting Station
Scattered Clouds Scattered Clouds  
Wind Chill: 55°   Ceiling: Unl
Heat Index: 55°   Visibility: 7mi
Dew Point: 52°   Wind: 17mph
Humidity: 88%   Direction: 180°S
Pressure: 29.92"   Gusts: 22mph
Location:  44.72°N, 123.92°W
Report Text: KONP 210835Z AUTO 18015G19KT 7SM SCT011 SCT016 SCT025 13/11 A2992 RMK AO2
Loading
Personal Weather Stations






























Interactive Weather Map
Tropical Storm Tracking
New forecast layout! Learn more

10-Day Weather Forecast

Advertisements
Track Severe Weather on mobile